Time;durP1;ratioP1;P1;durP2;ratioP2;P2;SDS_P1;SDS_P2;PMS_P1;PMS_P2;Temp;Humidity;BMP_temperature;BMP_pressure;BME280_temperature;BME280_humidity;BME280_pressure;Samples;Min_cycle;Max_cycle;Signal;HPM_P1;HPM_P2
2023/05/14 00:01:06;;;;;;;0.60;0.57;;;8.40;99.90;;;;;;5021771;28;20494;-79
2023/05/14 00:03:35;;;;;;;1.35;1.35;;;8.40;99.90;;;;;;5020988;28;20517;-79
2023/05/14 00:06:03;;;;;;;0.97;0.93;;;8.50;99.90;;;;;;5020925;28;20866;-78
2023/05/14 00:08:30;;;;;;;0.90;0.90;;;8.40;99.90;;;;;;5022520;28;20457;-79
2023/05/14 00:10:57;;;;;;;0.90;0.90;;;8.30;99.90;;;;;;5022218;28;21071;-79
2023/05/14 00:13:24;;;;;;;0.88;0.80;;;8.20;99.90;;;;;;5021838;28;20430;-79
2023/05/14 00:15:54;;;;;;;1.05;1.05;;;8.20;99.90;;;;;;5018162;28;20443;-78
2023/05/14 00:18:21;;;;;;;1.50;0.95;;;8.20;99.90;;;;;;5024442;28;20949;-79
2023/05/14 00:20:50;;;;;;;1.40;1.00;;;8.20;99.90;;;;;;5024702;28;20433;-79
2023/05/14 00:23:17;;;;;;;1.00;1.00;;;8.30;99.90;;;;;;5018482;28;20441;-78
2023/05/14 00:25:43;;;;;;;1.08;1.08;;;8.50;99.90;;;;;;5020199;28;20427;-79
2023/05/14 00:28:16;;;;;;;1.10;1.00;;;8.60;99.90;;;;;;5022134;28;20462;-79
2023/05/14 00:30:43;;;;;;;1.30;1.20;;;8.80;99.90;;;;;;5021964;28;20925;-78
2023/05/14 00:33:10;;;;;;;1.80;1.08;;;8.90;99.90;;;;;;5025265;28;20442;-79
2023/05/14 00:35:40;;;;;;;1.42;1.13;;;8.90;99.90;;;;;;5019769;28;20457;-78
2023/05/14 00:38:15;;;;;;;1.52;1.00;;;9.00;99.90;;;;;;5038344;28;20945;-78
2023/05/14 00:40:44;;;;;;;0.60;0.60;;;8.90;99.90;;;;;;5015656;28;20499;-79
2023/05/14 00:43:11;;;;;;;0.90;0.90;;;8.80;99.90;;;;;;5018653;28;20434;-79
2023/05/14 00:45:38;;;;;;;1.70;1.00;;;8.80;99.90;;;;;;5021926;28;20469;-80
2023/05/14 00:48:04;;;;;;;1.30;1.00;;;8.80;99.90;;;;;;5022716;28;20462;-79
2023/05/14 00:50:33;;;;;;;1.55;1.02;;;8.70;99.90;;;;;;5024288;28;20441;-79
2023/05/14 00:53:08;;;;;;;1.00;1.00;;;8.70;99.90;;;;;;5004337;28;20497;-79
2023/05/14 00:55:40;;;;;;;2.03;1.23;;;8.60;99.90;;;;;;5020178;28;20493;-79
2023/05/14 00:58:10;;;;;;;1.83;1.10;;;8.70;99.90;;;;;;5039739;28;20438;-79
2023/05/14 01:00:38;;;;;;;1.52;1.42;;;8.70;99.90;;;;;;5007977;28;20802;-79
2023/05/14 01:03:06;;;;;;;1.13;0.77;;;8.80;99.90;;;;;;5013478;28;20525;-79
2023/05/14 01:05:59;;;;;;;1.17;1.17;;;8.90;99.90;;;;;;5020757;28;20998;-79
2023/05/14 01:09:00;;;;;;;2.10;1.35;;;8.90;99.90;;;;;;5023183;28;20561;-79
2023/05/14 01:11:39;;;;;;;1.52;0.88;;;8.90;99.90;;;;;;5021182;28;20435;-79
2023/05/14 01:14:09;;;;;;;4.13;2.13;;;8.80;99.90;;;;;;5023697;28;20441;-79
2023/05/14 01:16:38;;;;;;;0.75;0.75;;;8.80;99.90;;;;;;5021073;28;20441;-79
2023/05/14 01:19:14;;;;;;;2.40;0.80;;;8.70;99.90;;;;;;5019320;28;20992;-79
2023/05/14 01:21:42;;;;;;;1.13;0.90;;;8.70;99.90;;;;;;5021447;28;20438;-79
2023/05/14 01:24:09;;;;;;;2.17;1.05;;;8.70;99.90;;;;;;5023871;28;20431;-79
2023/05/14 01:26:36;;;;;;;0.93;0.93;;;8.80;99.90;;;;;;5015255;28;20538;-77
2023/05/14 01:29:20;;;;;;;2.00;1.30;;;8.80;99.90;;;;;;5022584;28;20487;-77
2023/05/14 01:31:49;;;;;;;1.58;1.48;;;8.80;99.90;;;;;;5018456;28;20447;-79
2023/05/14 01:34:19;;;;;;;1.80;1.70;;;8.70;99.90;;;;;;5022344;28;20636;-79
2023/05/14 01:36:47;;;;;;;0.95;0.88;;;8.60;99.90;;;;;;5037289;28;20438;-79
2023/05/14 01:39:14;;;;;;;1.30;1.10;;;8.60;99.90;;;;;;5024099;28;20438;-79
2023/05/14 01:41:42;;;;;;;2.50;1.15;;;8.50;99.90;;;;;;5017179;28;20439;-78
2023/05/14 01:44:12;;;;;;;0.98;0.98;;;8.40;99.90;;;;;;5015600;28;20432;-78
2023/05/14 01:46:39;;;;;;;1.38;1.27;;;8.50;99.90;;;;;;5022010;28;20825;-78
2023/05/14 01:49:06;;;;;;;0.85;0.85;;;8.50;99.90;;;;;;5016385;28;20439;-78
2023/05/14 01:51:33;;;;;;;1.88;1.50;;;8.50;99.90;;;;;;5019555;28;20438;-78
2023/05/14 01:54:00;;;;;;;1.25;1.02;;;8.50;99.90;;;;;;5021985;28;20441;-79
2023/05/14 01:56:27;;;;;;;1.20;1.20;;;8.50;99.90;;;;;;5024092;28;20435;-78
2023/05/14 01:58:55;;;;;;;1.25;1.15;;;8.40;99.90;;;;;;5024339;28;20426;-78
2023/05/14 02:01:22;;;;;;;1.40;1.30;;;8.30;99.90;;;;;;5020148;28;20452;-79
2023/05/14 02:03:49;;;;;;;1.50;1.40;;;8.30;99.90;;;;;;5013673;28;20523;-78
2023/05/14 02:06:16;;;;;;;1.10;1.10;;;8.30;99.90;;;;;;5023268;28;20430;-78
2023/05/14 02:08:42;;;;;;;0.85;0.85;;;8.20;99.90;;;;;;5024055;28;20415;-78
2023/05/14 02:11:12;;;;;;;1.23;1.23;;;8.20;99.90;;;;;;5022332;28;20431;-78
2023/05/14 02:13:39;;;;;;;1.30;1.07;;;8.20;99.90;;;;;;5022640;28;20443;-79
2023/05/14 02:16:11;;;;;;;3.80;1.45;;;8.20;99.90;;;;;;5021567;28;20695;-77
2023/05/14 02:18:40;;;;;;;0.93;0.93;;;8.30;99.90;;;;;;5017055;28;20490;-78
2023/05/14 02:21:07;;;;;;;2.10;1.20;;;8.30;99.90;;;;;;5024155;28;20471;-78
2023/05/14 02:23:34;;;;;;;1.10;1.10;;;8.30;99.90;;;;;;5023991;28;20462;-78
2023/05/14 02:26:09;;;;;;;1.23;1.13;;;8.30;99.90;;;;;;5025203;28;20492;-78
2023/05/14 02:28:36;;;;;;;1.83;0.88;;;8.30;99.90;;;;;;5026436;28;20435;-78
2023/05/14 02:31:06;;;;;;;1.52;0.98;;;8.20;99.90;;;;;;5027604;28;20449;-79
2023/05/14 02:33:32;;;;;;;2.30;1.08;;;8.40;99.90;;;;;;5023725;28;20423;-78
2023/05/14 02:35:59;;;;;;;0.65;0.65;;;8.40;99.90;;;;;;5023406;28;20486;-79
2023/05/14 02:38:26;;;;;;;1.42;1.33;;;8.30;99.90;;;;;;5018957;28;20427;-79
2023/05/14 02:40:52;;;;;;;0.88;0.88;;;8.20;99.90;;;;;;5027221;28;20435;-79
2023/05/14 02:43:19;;;;;;;0.93;0.93;;;8.10;99.90;;;;;;5023699;28;20437;-78
2023/05/14 02:45:48;;;;;;;0.70;0.70;;;8.10;99.90;;;;;;5013061;28;20470;-79
2023/05/14 02:48:15;;;;;;;1.60;1.08;;;8.00;99.90;;;;;;5014948;28;20481;-78
2023/05/14 02:50:42;;;;;;;1.02;1.02;;;8.10;99.90;;;;;;5022131;28;20692;-79
2023/05/14 02:53:09;;;;;;;1.17;1.07;;;8.10;99.90;;;;;;5018901;28;20960;-79
2023/05/14 02:55:35;;;;;;;1.87;1.23;;;8.10;99.90;;;;;;5027033;28;20531;-79
2023/05/14 02:58:04;;;;;;;1.33;1.20;;;8.20;99.90;;;;;;5022187;28;20512;-78
2023/05/14 03:00:34;;;;;;;5.95;1.48;;;8.10;99.90;;;;;;5017122;28;20523;-78
2023/05/14 03:03:01;;;;;;;1.40;1.23;;;8.00;99.90;;;;;;5016735;28;20466;-79
2023/05/14 03:05:28;;;;;;;0.70;0.70;;;7.90;99.90;;;;;;5022516;28;20443;-79
2023/05/14 03:07:55;;;;;;;0.85;0.85;;;7.90;99.90;;;;;;5025277;28;20933;-80
2023/05/14 03:10:21;;;;;;;1.00;1.00;;;7.80;99.90;;;;;;5034726;28;20445;-78
2023/05/14 03:12:49;;;;;;;2.08;1.13;;;7.80;99.90;;;;;;5025697;28;20496;-79
2023/05/14 03:15:15;;;;;;;1.65;1.55;;;7.80;99.90;;;;;;5017068;28;20432;-78
2023/05/14 03:17:42;;;;;;;1.00;1.00;;;7.70;99.90;;;;;;5023935;28;20995;-78
2023/05/14 03:20:11;;;;;;;0.93;0.90;;;7.70;99.90;;;;;;5024237;28;20433;-79
2023/05/14 03:22:37;;;;;;;1.08;1.08;;;7.80;99.90;;;;;;5023771;28;20442;-79
2023/05/14 03:25:07;;;;;;;0.98;0.98;;;7.80;99.90;;;;;;5020735;28;20440;-78
2023/05/14 03:27:34;;;;;;;1.25;1.20;;;7.70;99.90;;;;;;5017123;28;20506;-78
2023/05/14 03:30:01;;;;;;;1.50;1.23;;;7.60;99.90;;;;;;5023200;28;20532;-78
2023/05/14 03:32:29;;;;;;;1.92;0.98;;;7.50;99.90;;;;;;5021294;28;20463;-78
2023/05/14 03:34:55;;;;;;;2.25;0.80;;;7.40;99.90;;;;;;5024870;28;20430;-79
2023/05/14 03:37:23;;;;;;;1.58;1.48;;;7.40;99.90;;;;;;5022615;28;20431;-78
2023/05/14 03:39:49;;;;;;;0.80;0.80;;;7.30;99.90;;;;;;5025187;28;20435;-78
2023/05/14 03:42:16;;;;;;;0.93;0.90;;;7.20;99.90;;;;;;5026634;28;20430;-79
2023/05/14 03:44:43;;;;;;;1.48;1.05;;;7.10;99.90;;;;;;5023585;28;20937;-79
2023/05/14 03:47:10;;;;;;;1.20;0.88;;;7.10;99.90;;;;;;5023020;28;20438;-78
2023/05/14 03:49:37;;;;;;;0.67;0.67;;;7.10;99.90;;;;;;5026702;28;20446;-78
2023/05/14 03:52:04;;;;;;;0.90;0.90;;;7.00;99.90;;;;;;5022961;28;20450;-78
2023/05/14 03:54:30;;;;;;;0.95;0.95;;;7.00;99.90;;;;;;5024424;28;20436;-78
2023/05/14 03:56:57;;;;;;;0.80;0.80;;;7.10;99.90;;;;;;5012541;28;20487;-79
2023/05/14 03:59:24;;;;;;;0.80;0.80;;;7.20;99.90;;;;;;5025660;28;20430;-79
2023/05/14 04:01:51;;;;;;;0.65;0.65;;;7.20;99.90;;;;;;5038759;28;20438;-78
2023/05/14 04:04:18;;;;;;;1.03;1.03;;;7.30;99.90;;;;;;5024637;28;20441;-78
2023/05/14 04:06:45;;;;;;;0.60;0.57;;;7.30;99.90;;;;;;5014560;28;20426;-78
2023/05/14 04:09:12;;;;;;;1.15;1.05;;;7.40;99.90;;;;;;5017880;28;20471;-78
2023/05/14 04:11:39;;;;;;;0.75;0.75;;;7.30;99.90;;;;;;5023205;28;20466;-78
2023/05/14 04:14:06;;;;;;;0.70;0.70;;;7.30;99.90;;;;;;5022523;28;20778;-78
2023/05/14 04:16:33;;;;;;;0.87;0.87;;;7.30;99.90;;;;;;5018657;28;20449;-78
2023/05/14 04:19:03;;;;;;;1.07;1.07;;;7.30;99.90;;;;;;5010796;28;20448;-78
2023/05/14 04:21:30;;;;;;;2.73;0.93;;;7.40;99.90;;;;;;5024899;28;20453;-78
2023/05/14 04:23:57;;;;;;;0.70;0.70;;;7.40;99.90;;;;;;5026694;28;20930;-79
2023/05/14 04:26:24;;;;;;;0.98;0.95;;;7.40;99.90;;;;;;5017513;28;20440;-78
2023/05/14 04:28:51;;;;;;;1.25;1.15;;;7.40;99.90;;;;;;5012013;28;20466;-79
2023/05/14 04:31:18;;;;;;;1.00;0.80;;;7.40;99.90;;;;;;5021655;28;20439;-78
2023/05/14 04:33:45;;;;;;;0.40;0.40;;;7.40;99.90;;;;;;5021474;28;20937;-79
2023/05/14 04:36:12;;;;;;;1.10;0.80;;;7.50;99.90;;;;;;5023755;28;20429;-78
2023/05/14 04:38:39;;;;;;;0.70;0.70;;;7.60;99.90;;;;;;5008769;28;20436;-78
2023/05/14 04:41:06;;;;;;;0.90;0.70;;;8.00;99.90;;;;;;5025304;28;20919;-79
2023/05/14 04:43:33;;;;;;;0.60;0.60;;;8.60;99.90;;;;;;5029571;28;20872;-78
2023/05/14 04:46:00;;;;;;;0.80;0.80;;;9.20;99.90;;;;;;5029359;28;20436;-79
2023/05/14 04:48:27;;;;;;;1.60;1.10;;;9.70;99.90;;;;;;5028449;28;20442;-78
2023/05/14 04:50:54;;;;;;;1.52;1.05;;;10.20;99.90;;;;;;5015016;28;20993;-78
2023/05/14 04:53:21;;;;;;;0.90;0.90;;;10.60;99.90;;;;;;5017325;28;20435;-78
2023/05/14 04:55:47;;;;;;;1.00;0.90;;;11.10;99.90;;;;;;5021864;28;20427;-78
2023/05/14 04:58:14;;;;;;;1.17;1.13;;;11.60;99.90;;;;;;5015363;28;20435;-77
2023/05/14 05:00:41;;;;;;;0.98;0.98;;;12.00;99.90;;;;;;5035441;28;20437;-77
2023/05/14 05:03:08;;;;;;;0.93;0.93;;;12.30;99.90;;;;;;5021042;28;20427;-77
2023/05/14 05:05:34;;;;;;;0.87;0.80;;;12.70;99.90;;;;;;5031934;28;20534;-77
2023/05/14 05:08:01;;;;;;;1.27;1.17;;;13.10;99.90;;;;;;5018483;28;20824;-77
2023/05/14 05:10:28;;;;;;;1.17;1.08;;;13.40;99.90;;;;;;5018867;28;20435;-78
2023/05/14 05:12:55;;;;;;;0.90;0.90;;;13.40;99.90;;;;;;5019965;28;20432;-77
2023/05/14 05:15:21;;;;;;;2.40;1.10;;;13.30;99.90;;;;;;5021666;28;20484;-78
2023/05/14 05:17:50;;;;;;;1.50;1.40;;;12.90;1.00;;;;;;5023723;28;20489;-78
2023/05/14 05:20:17;;;;;;;1.40;1.10;;;12.50;99.90;;;;;;5021102;28;20451;-78
2023/05/14 05:22:44;;;;;;;1.90;1.00;;;12.00;91.20;;;;;;5022408;28;20439;-78
2023/05/14 05:25:11;;;;;;;2.03;1.05;;;11.70;99.90;;;;;;5018781;28;20504;-77
2023/05/14 05:27:38;;;;;;;1.23;1.08;;;11.40;99.90;;;;;;5016150;28;20472;-78
2023/05/14 05:30:06;;;;;;;1.58;1.48;;;11.20;99.90;;;;;;5022861;28;20430;-78
2023/05/14 05:32:33;;;;;;;0.90;0.90;;;11.20;99.90;;;;;;5028296;28;20438;-77
2023/05/14 05:35:00;;;;;;;1.05;1.05;;;11.30;99.90;;;;;;5022467;28;20463;-77
2023/05/14 05:37:27;;;;;;;1.30;1.20;;;11.50;99.90;;;;;;5015480;28;20439;-78
2023/05/14 05:39:53;;;;;;;1.92;1.05;;;11.60;99.90;;;;;;5027966;28;20495;-78
2023/05/14 05:42:21;;;;;;;1.23;1.23;;;11.60;99.90;;;;;;5022939;28;20864;-79
2023/05/14 05:44:50;;;;;;;1.87;1.20;;;11.70;99.90;;;;;;5017585;28;20503;-79
2023/05/14 05:47:17;;;;;;;1.65;1.55;;;11.70;99.90;;;;;;5018427;28;20436;-78
2023/05/14 05:49:44;;;;;;;1.13;1.13;;;11.80;99.90;;;;;;5017451;28;20435;-79
2023/05/14 05:52:11;;;;;;;1.27;1.00;;;12.00;99.90;;;;;;5013147;28;20533;-78
2023/05/14 05:54:38;;;;;;;1.33;1.27;;;12.30;99.90;;;;;;5020401;28;20815;-78
2023/05/14 05:57:06;;;;;;;1.60;1.50;;;12.70;36.90;;;;;;5007293;28;20439;-78
2023/05/14 05:59:33;;;;;;;1.02;1.02;;;13.10;1.00;;;;;;5011300;28;20434;-80
2023/05/14 06:01:59;;;;;;;1.33;1.27;;;13.30;1.00;;;;;;5012507;28;20814;-79
2023/05/14 06:04:26;;;;;;;1.52;1.42;;;13.30;1.00;;;;;;5015962;28;20444;-79
2023/05/14 06:06:53;;;;;;;2.20;1.38;;;13.20;30.00;;;;;;5010833;28;20433;-80
2023/05/14 06:09:20;;;;;;;1.27;1.20;;;13.30;1.00;;;;;;5016728;28;20687;-79
2023/05/14 06:11:47;;;;;;;1.20;1.20;;;13.30;1.00;;;;;;5022339;28;20431;-79
2023/05/14 06:14:13;;;;;;;1.48;1.38;;;13.50;1.00;;;;;;5019422;28;20445;-77
2023/05/14 06:16:40;;;;;;;1.55;1.50;;;13.60;1.00;;;;;;5019502;28;20427;-77
2023/05/14 06:19:07;;;;;;;1.20;1.10;;;13.70;1.00;;;;;;5023130;28;20491;-78
2023/05/14 06:21:34;;;;;;;1.70;1.60;;;13.50;6.00;;;;;;5017985;28;20434;-77
2023/05/14 06:24:01;;;;;;;1.45;1.35;;;13.50;99.90;;;;;;5016733;28;20559;-77
2023/05/14 06:26:27;;;;;;;1.25;1.17;;;14.20;99.90;;;;;;5022597;28;20449;-78
2023/05/14 06:28:54;;;;;;;1.45;1.40;;;15.20;1.00;;;;;;5020091;28;20443;-79
2023/05/14 06:31:21;;;;;;;1.10;1.10;;;16.30;1.00;;;;;;5021361;28;20440;-78
2023/05/14 06:33:47;;;;;;;1.20;1.20;;;16.90;1.00;;;;;;5020843;28;20872;-80
2023/05/14 06:36:14;;;;;;;2.50;1.00;;;17.20;99.90;;;;;;5020218;28;20435;-78
2023/05/14 06:38:41;;;;;;;1.20;1.20;;;17.50;99.90;;;;;;5015639;28;20444;-78
2023/05/14 06:41:10;;;;;;;0.90;0.90;;;18.20;99.90;;;;;;5024231;28;20437;-79
2023/05/14 06:43:37;;;;;;;1.20;1.20;;;19.10;99.90;;;;;;5024710;28;20795;-78
2023/05/14 06:46:04;;;;;;;1.13;0.95;;;19.60;99.90;;;;;;5024563;28;20442;-78
2023/05/14 06:48:31;;;;;;;1.40;1.17;;;20.00;99.90;;;;;;5015734;28;20464;-78
2023/05/14 06:51:04;;;;;;;1.15;1.10;;;20.20;99.90;;;;;;5014935;28;20506;-78
2023/05/14 06:53:32;;;;;;;1.00;1.00;;;20.30;99.90;;;;;;5024129;28;20647;-79
2023/05/14 06:55:59;;;;;;;0.80;0.80;;;20.60;99.90;;;;;;5022217;28;20450;-78
2023/05/14 06:58:26;;;;;;;0.88;0.88;;;20.80;99.90;;;;;;5018663;28;20566;-79
2023/05/14 07:00:53;;;;;;;1.10;1.00;;;20.70;99.90;;;;;;5016627;28;20434;-78
2023/05/14 07:03:21;;;;;;;0.82;0.82;;;20.80;99.90;;;;;;5020074;28;20446;-79
2023/05/14 07:05:47;;;;;;;0.80;0.80;;;21.00;99.90;;;;;;5019680;28;20434;-79
2023/05/14 07:08:14;;;;;;;0.87;0.87;;;20.80;99.90;;;;;;5024472;28;20430;-80
2023/05/14 07:10:41;;;;;;;0.98;0.90;;;20.80;99.90;;;;;;5025351;28;20439;-79
2023/05/14 07:13:10;;;;;;;0.80;0.80;;;20.80;99.90;;;;;;5017590;28;22895;-78
2023/05/14 07:15:39;;;;;;;1.33;0.70;;;21.20;99.90;;;;;;5022014;28;20504;-79
2023/05/14 07:18:06;;;;;;;0.70;0.70;;;21.40;99.90;;;;;;5020116;28;21026;-80
2023/05/14 07:20:33;;;;;;;0.88;0.88;;;21.10;99.90;;;;;;5023927;28;20858;-79
2023/05/14 07:22:59;;;;;;;1.02;1.02;;;21.40;99.90;;;;;;5015806;28;20929;-77
2023/05/14 07:25:26;;;;;;;0.80;0.80;;;21.80;99.90;;;;;;5028209;28;20973;-80
2023/05/14 07:27:53;;;;;;;0.45;0.45;;;22.00;99.90;;;;;;5026274;28;20429;-80
2023/05/14 07:30:26;;;;;;;0.70;0.70;;;22.10;99.90;;;;;;5021583;28;20969;-79
2023/05/14 07:32:52;;;;;;;0.57;0.57;;;21.80;99.90;;;;;;5021024;28;20429;-81
2023/05/14 07:35:19;;;;;;;0.90;0.90;;;21.80;99.90;;;;;;5028839;28;20525;-80
2023/05/14 07:37:46;;;;;;;1.02;1.02;;;21.60;99.90;;;;;;5021113;28;20522;-81
2023/05/14 07:40:13;;;;;;;1.10;1.00;;;21.00;99.90;;;;;;5019652;28;20435;-79
2023/05/14 07:42:43;;;;;;;0.80;0.80;;;20.90;99.90;;;;;;5019121;28;20435;-81
2023/05/14 07:45:10;;;;;;;1.10;0.73;;;21.20;99.90;;;;;;5016333;28;20643;-82
2023/05/14 07:47:37;;;;;;;0.60;0.60;;;21.60;99.90;;;;;;5011211;28;20439;-80
2023/05/14 07:50:05;;;;;;;0.90;0.90;;;21.70;99.90;;;;;;5017886;28;21132;-80
2023/05/14 07:52:32;;;;;;;0.80;0.80;;;21.60;99.90;;;;;;5018943;28;20553;-82
2023/05/14 07:55:00;;;;;;;3.30;1.10;;;20.90;99.90;;;;;;5015241;28;20717;-81
2023/05/14 07:57:27;;;;;;;0.67;0.67;;;20.40;99.90;;;;;;5023293;28;20444;-80
2023/05/14 07:59:53;;;;;;;4.50;1.10;;;20.20;99.90;;;;;;5029684;28;20446;-79
2023/05/14 08:02:20;;;;;;;0.68;0.68;;;20.30;99.90;;;;;;5013181;28;20436;-81
2023/05/14 08:04:47;;;;;;;0.63;0.63;;;20.80;99.90;;;;;;5017558;28;20458;-80
2023/05/14 08:07:13;;;;;;;0.63;0.63;;;21.30;99.90;;;;;;5019887;28;20446;-81
2023/05/14 08:09:40;;;;;;;0.70;0.70;;;20.80;99.90;;;;;;5017645;28;20834;-80
2023/05/14 08:12:07;;;;;;;0.60;0.60;;;20.70;99.90;;;;;;5015882;28;20468;-79
2023/05/14 08:14:34;;;;;;;0.73;0.73;;;21.10;99.90;;;;;;5017869;28;20427;-80
2023/05/14 08:17:01;;;;;;;0.90;0.90;;;21.40;99.90;;;;;;5023971;28;20857;-79
2023/05/14 08:19:28;;;;;;;0.60;0.60;;;21.10;99.90;;;;;;5017858;28;20430;-78
2023/05/14 08:21:54;;;;;;;0.70;0.70;;;21.30;99.90;;;;;;5014720;28;20436;-79
2023/05/14 08:24:21;;;;;;;0.93;0.82;;;21.80;99.90;;;;;;5017710;28;20534;-81
2023/05/14 08:26:48;;;;;;;2.65;1.00;;;22.10;99.90;;;;;;5018337;28;20460;-81
2023/05/14 08:29:15;;;;;;;1.08;1.05;;;21.90;99.90;;;;;;5020426;28;20446;-80
2023/05/14 08:31:42;;;;;;;0.80;0.80;;;21.80;99.90;;;;;;5017571;28;20448;-80
2023/05/14 08:34:09;;;;;;;0.70;0.70;;;21.00;99.90;;;;;;5012593;28;20780;-81
2023/05/14 08:36:37;;;;;;;0.80;0.80;;;20.10;99.90;;;;;;5021321;28;20462;-81
2023/05/14 08:39:07;;;;;;;0.63;0.63;;;19.80;99.90;;;;;;5017104;28;20431;-83
2023/05/14 08:41:35;;;;;;;0.80;0.80;;;20.60;99.90;;;;;;5033424;28;20442;-81
2023/05/14 08:44:13;;;;;;;0.63;0.63;;;20.40;99.90;;;;;;5018979;28;20438;-82
2023/05/14 08:46:48;;;;;;;0.80;0.80;;;20.20;99.90;;;;;;5020635;28;20932;-83
2023/05/14 08:49:34;;;;;;;0.70;0.70;;;19.90;99.90;;;;;;5018666;28;20506;-83
2023/05/14 08:52:01;;;;;;;0.88;0.80;;;19.30;99.90;;;;;;5018118;28;20454;-82
2023/05/14 08:54:31;;;;;;;0.57;0.57;;;18.90;99.90;;;;;;5013916;28;20440;-82
2023/05/14 08:57:09;;;;;;;0.93;0.65;;;18.60;99.90;;;;;;5018105;28;20435;-82
2023/05/14 08:59:36;;;;;;;0.68;0.68;;;18.60;99.90;;;;;;5016075;28;20419;-82
2023/05/14 09:02:05;;;;;;;0.93;0.93;;;18.60;99.90;;;;;;5013151;28;20443;-83
2023/05/14 09:04:33;;;;;;;0.82;0.82;;;18.70;99.90;;;;;;5035979;28;20427;-83
2023/05/14 09:07:01;;;;;;;0.57;0.57;;;18.40;99.90;;;;;;5022013;28;20505;-83
2023/05/14 09:09:28;;;;;;;0.73;0.73;;;18.40;99.90;;;;;;5017500;28;20507;-83
2023/05/14 09:11:55;;;;;;;0.55;0.55;;;18.50;99.90;;;;;;5023687;28;20501;-84
2023/05/14 09:14:22;;;;;;;1.00;0.85;;;18.60;99.90;;;;;;5012096;28;21095;-84
2023/05/14 09:16:51;;;;;;;0.70;0.70;;;18.80;99.90;;;;;;5019725;28;20435;-83
2023/05/14 09:19:19;;;;;;;0.83;0.83;;;19.10;99.90;;;;;;5023135;28;20435;-84
2023/05/14 09:21:48;;;;;;;0.80;0.80;;;19.50;99.90;;;;;;5026859;28;20874;-82
2023/05/14 09:24:23;;;;;;;0.80;0.80;;;19.10;99.90;;;;;;5022030;28;20435;-82
2023/05/14 09:26:56;;;;;;;0.90;0.90;;;20.00;99.90;;;;;;5021625;28;20488;-82
2023/05/14 09:29:24;;;;;;;0.65;0.65;;;20.90;99.90;;;;;;5017634;28;20441;-83
2023/05/14 09:31:52;;;;;;;1.35;0.73;;;21.60;99.90;;;;;;5018732;28;20822;-82
2023/05/14 09:34:28;;;;;;;0.87;0.80;;;22.10;99.90;;;;;;5030592;28;20420;-82
2023/05/14 09:37:00;;;;;;;0.70;0.70;;;22.80;99.90;;;;;;5013117;28;20439;-83
2023/05/14 09:39:27;;;;;;;0.90;0.90;;;23.40;99.90;;;;;;5023372;28;20434;-82
2023/05/14 09:41:55;;;;;;;0.73;0.73;;;23.50;99.90;;;;;;5014982;28;20429;-82
2023/05/14 09:44:22;;;;;;;0.77;0.77;;;23.10;99.90;;;;;;5020159;28;20436;-81
2023/05/14 09:46:49;;;;;;;0.60;0.60;;;22.60;99.90;;;;;;5010874;28;20436;-82
2023/05/14 09:49:16;;;;;;;1.08;0.65;;;22.80;99.90;;;;;;5022943;28;20435;-83
2023/05/14 09:51:43;;;;;;;0.68;0.68;;;23.00;99.90;;;;;;5022538;28;20856;-80
2023/05/14 09:54:10;;;;;;;2.60;0.70;;;23.10;99.90;;;;;;5019539;28;20433;-82
2023/05/14 09:56:38;;;;;;;0.60;0.60;;;23.50;99.90;;;;;;5018390;28;20467;-83
2023/05/14 09:59:05;;;;;;;0.70;0.70;;;23.80;99.90;;;;;;5018836;28;20505;-84
2023/05/14 10:01:32;;;;;;;1.70;1.00;;;23.80;99.90;;;;;;5014163;28;20519;-82
2023/05/14 10:04:00;;;;;;;0.73;0.73;;;23.90;99.90;;;;;;5014745;28;20605;-80
2023/05/14 10:06:32;;;;;;;0.80;0.80;;;22.70;99.90;;;;;;5017617;28;20999;-81
2023/05/14 10:09:02;;;;;;;0.65;0.65;;;21.80;99.90;;;;;;5017253;28;20434;-81
2023/05/14 10:11:36;;;;;;;0.90;0.77;;;20.90;99.90;;;;;;5022988;28;20434;-81
2023/05/14 10:14:17;;;;;;;0.75;0.75;;;20.70;99.90;;;;;;5016794;28;20439;-82
2023/05/14 10:16:48;;;;;;;1.58;1.08;;;20.70;99.90;;;;;;5020572;28;20448;-81
2023/05/14 10:19:18;;;;;;;1.00;1.00;;;21.00;99.90;;;;;;5033654;28;20440;-82
2023/05/14 10:21:51;;;;;;;0.60;0.60;;;21.00;99.90;;;;;;5017988;28;20492;-81
2023/05/14 10:24:18;;;;;;;0.73;0.65;;;20.90;99.90;;;;;;5019160;28;20632;-80
2023/05/14 10:26:46;;;;;;;0.73;0.73;;;20.50;99.90;;;;;;5025235;28;20431;-81
2023/05/14 10:29:12;;;;;;;2.63;1.10;;;20.40;99.90;;;;;;5027878;28;20446;-81
2023/05/14 10:31:52;;;;;;;1.00;0.90;;;20.10;99.90;;;;;;5030701;28;21263;-82
2023/05/14 10:34:42;;;;;;;0.73;0.73;;;19.90;99.90;;;;;;5032315;28;20435;-81
2023/05/14 10:37:14;;;;;;;0.60;0.60;;;20.00;99.90;;;;;;5027903;28;20481;-85
2023/05/14 10:39:58;;;;;;;0.60;0.60;;;20.20;99.90;;;;;;5015325;28;20430;-83
2023/05/14 10:42:31;;;;;;;0.70;0.70;;;20.70;99.90;;;;;;5020783;28;20477;-83
2023/05/14 10:45:06;;;;;;;0.60;0.60;;;20.90;99.90;;;;;;5022683;28;20520;-81
2023/05/14 10:47:36;;;;;;;0.50;0.50;;;20.70;99.90;;;;;;5022604;28;20431;-84
2023/05/14 10:50:07;;;;;;;0.70;0.60;;;20.70;99.90;;;;;;5021719;28;20514;-81
2023/05/14 10:52:34;;;;;;;0.80;0.80;;;20.90;99.90;;;;;;5017912;28;20442;-82
2023/05/14 10:55:06;;;;;;;0.60;0.60;;;20.70;99.90;;;;;;5016002;28;20558;-83
2023/05/14 10:57:36;;;;;;;0.63;0.63;;;20.70;99.90;;;;;;5011090;28;20532;-83
2023/05/14 11:00:09;;;;;;;0.47;0.47;;;21.00;99.90;;;;;;5017250;28;20498;-82
2023/05/14 11:02:38;;;;;;;0.90;0.90;;;21.10;99.90;;;;;;5015803;28;20462;-83
2023/05/14 11:05:08;;;;;;;0.57;0.57;;;21.40;99.90;;;;;;5021166;28;20691;-83
2023/05/14 11:07:37;;;;;;;0.50;0.50;;;21.60;99.90;;;;;;5020247;28;20906;-81
2023/05/14 11:10:06;;;;;;;0.50;0.45;;;21.40;99.90;;;;;;5032294;28;20446;-81
2023/05/14 11:12:35;;;;;;;0.47;0.47;;;21.10;99.90;;;;;;5013944;28;20526;-84
2023/05/14 11:15:05;;;;;;;0.57;0.57;;;21.10;99.90;;;;;;5015897;28;20798;-84
2023/05/14 11:17:34;;;;;;;0.60;0.60;;;21.20;99.90;;;;;;5019801;28;20430;-83
2023/05/14 11:20:05;;;;;;;0.50;0.50;;;21.00;99.90;;;;;;5018529;28;20427;-82
2023/05/14 11:22:35;;;;;;;0.57;0.57;;;21.50;99.90;;;;;;5037889;28;20431;-82
2023/05/14 11:25:02;;;;;;;0.43;0.43;;;21.50;99.90;;;;;;5024270;28;20813;-81
2023/05/14 11:27:30;;;;;;;0.50;0.50;;;21.70;99.90;;;;;;5021166;28;20435;-83
2023/05/14 11:29:59;;;;;;;0.60;0.60;;;21.90;99.90;;;;;;5014740;28;20855;-82
2023/05/14 11:32:26;;;;;;;0.40;0.40;;;21.60;99.90;;;;;;5018178;28;20449;-83
2023/05/14 11:34:53;;;;;;;0.40;0.40;;;21.60;99.90;;;;;;5018940;28;20450;-82
2023/05/14 11:37:20;;;;;;;0.60;0.60;;;21.70;99.90;;;;;;5021687;28;20711;-82
2023/05/14 11:39:49;;;;;;;0.52;0.52;;;21.50;99.90;;;;;;5023666;28;20431;-84
2023/05/14 11:42:18;;;;;;;0.50;0.50;;;21.70;99.90;;;;;;5019515;28;20960;-82
2023/05/14 11:44:47;;;;;;;0.80;0.80;;;22.00;99.90;;;;;;5022130;28;20526;-80
2023/05/14 11:47:16;;;;;;;1.30;1.00;;;22.40;99.90;;;;;;5040730;28;20496;-81
2023/05/14 11:49:42;;;;;;;1.40;1.30;;;22.40;99.90;;;;;;5026071;28;20435;-82
2023/05/14 11:52:12;;;;;;;0.57;0.57;;;22.40;99.90;;;;;;5025275;28;20449;-81
2023/05/14 11:54:43;;;;;;;0.60;0.60;;;22.60;99.90;;;;;;5024752;28;20492;-81
2023/05/14 11:57:12;;;;;;;0.60;0.60;;;21.90;99.90;;;;;;5027952;28;20431;-81
2023/05/14 11:59:40;;;;;;;1.08;0.98;;;22.00;99.90;;;;;;5025480;28;20951;-82
2023/05/14 12:02:11;;;;;;;0.50;0.50;;;22.90;99.90;;;;;;5030888;28;20459;-81
2023/05/14 12:04:39;;;;;;;0.60;0.60;;;23.10;99.90;;;;;;5022947;28;20457;-81
2023/05/14 12:07:12;;;;;;;0.50;0.50;;;23.00;99.90;;;;;;5022187;28;20891;-82
2023/05/14 12:09:48;;;;;;;1.50;0.60;;;23.60;99.90;;;;;;5019189;28;20465;-80
2023/05/14 12:12:22;;;;;;;1.25;0.40;;;24.00;99.90;;;;;;5042977;28;20469;-80
2023/05/14 12:14:51;;;;;;;0.80;0.50;;;24.70;99.90;;;;;;5027039;28;20434;-81
2023/05/14 12:17:20;;;;;;;0.40;0.40;;;25.00;99.90;;;;;;5021430;28;20504;-81
2023/05/14 12:19:49;;;;;;;0.55;0.55;;;25.40;99.90;;;;;;5020414;28;21453;-80
2023/05/14 12:22:21;;;;;;;0.40;0.40;;;25.20;99.90;;;;;;5025691;28;20434;-81
2023/05/14 12:24:55;;;;;;;0.60;0.60;;;25.00;99.90;;;;;;5016267;28;20431;-81
2023/05/14 12:27:27;;;;;;;1.52;0.57;;;23.50;99.90;;;;;;5023463;28;20490;-81
2023/05/14 12:30:01;;;;;;;0.50;0.50;;;22.80;99.90;;;;;;5021225;28;20432;-80
2023/05/14 12:32:51;;;;;;;0.40;0.40;;;22.40;99.90;;;;;;5028794;28;20898;-80
2023/05/14 12:35:21;;;;;;;0.80;0.70;;;22.20;99.90;;;;;;5021023;28;20450;-82
2023/05/14 12:37:48;;;;;;;0.50;0.50;;;22.00;99.90;;;;;;5024402;28;20432;-81
2023/05/14 12:40:15;;;;;;;0.50;0.50;;;21.60;99.90;;;;;;5022110;28;20437;-81
2023/05/14 12:42:43;;;;;;;0.50;0.50;;;21.80;99.90;;;;;;5024840;28;20431;-82
2023/05/14 12:45:12;;;;;;;0.60;0.60;;;22.30;99.90;;;;;;5025883;28;20484;-81
2023/05/14 12:47:39;;;;;;;0.80;0.80;;;22.60;99.90;;;;;;5036522;28;20510;-81
2023/05/14 12:50:06;;;;;;;0.40;0.40;;;22.60;99.90;;;;;;5045206;28;21050;-81
2023/05/14 12:52:33;;;;;;;0.70;0.43;;;22.30;99.90;;;;;;5038914;28;20763;-82
2023/05/14 12:55:07;;;;;;;0.60;0.60;;;23.30;99.90;;;;;;5020769;28;20442;-81
2023/05/14 12:57:34;;;;;;;0.40;0.40;;;24.20;99.90;;;;;;5033015;28;20504;-84